Time;durP1;ratioP1;P1;durP2;ratioP2;P2;SDS_P1;SDS_P2;PMS_P1;PMS_P2;Temp;Humidity;BMP_temperature;BMP_pressure;BME280_temperature;BME280_humidity;BME280_pressure;Samples;Min_cycle;Max_cycle;Signal;HPM_P1;HPM_P2
2024/01/25 00:01:17;;;;;;;21.80;7.13;;;;;;;;;;5099025;28;20451;-65
2024/01/25 00:03:44;;;;;;;22.80;7.80;;;;;;;;;;5086014;28;20937;-65
2024/01/25 00:06:11;;;;;;;18.43;8.00;;;;;;;;;;5095849;28;20447;-65
2024/01/25 00:08:37;;;;;;;27.70;8.03;;;;;;;;;;5090357;28;20507;-66
2024/01/25 00:11:04;;;;;;;21.87;9.13;;;;;;;;;;5096136;28;20770;-65
2024/01/25 00:13:30;;;;;;;22.50;7.93;;;;;;;;;;5096676;28;20456;-65
2024/01/25 00:15:57;;;;;;;23.93;7.77;;;;;;;;;;5092087;28;20506;-65
2024/01/25 00:18:23;;;;;;;24.07;7.80;;;;;;;;;;5092282;28;20444;-65
2024/01/25 00:20:51;;;;;;;26.83;7.50;;;;;;;;;;5095589;28;20447;-66
2024/01/25 00:23:18;;;;;;;18.00;6.60;;;;;;;;;;5094221;28;20462;-65
2024/01/25 00:25:44;;;;;;;18.80;6.63;;;;;;;;;;5088923;28;20547;-65
2024/01/25 00:28:12;;;;;;;17.93;6.83;;;;;;;;;;5091424;28;20514;-65
2024/01/25 00:30:39;;;;;;;25.37;9.00;;;;;;;;;;5096755;28;20813;-65
2024/01/25 00:33:05;;;;;;;30.93;8.30;;;;;;;;;;5095936;28;20830;-65
2024/01/25 00:35:32;;;;;;;18.57;7.53;;;;;;;;;;5098036;28;20491;-65
2024/01/25 00:38:01;;;;;;;18.67;6.83;;;;;;;;;;5092222;28;20486;-65
2024/01/25 00:40:27;;;;;;;18.13;8.50;;;;;;;;;;5097086;28;20481;-65
2024/01/25 00:42:54;;;;;;;24.67;8.50;;;;;;;;;;5092507;28;20479;-65
2024/01/25 00:45:21;;;;;;;19.63;7.97;;;;;;;;;;5095743;28;20514;-65
2024/01/25 00:47:48;;;;;;;22.23;7.23;;;;;;;;;;5095241;28;20498;-65
2024/01/25 00:50:17;;;;;;;26.00;7.83;;;;;;;;;;5093928;28;20518;-66
2024/01/25 00:52:43;;;;;;;31.70;8.00;;;;;;;;;;5096605;28;20530;-65
2024/01/25 00:55:12;;;;;;;18.70;7.43;;;;;;;;;;5093198;28;20599;-66
2024/01/25 00:57:39;;;;;;;18.70;6.80;;;;;;;;;;5093245;28;20440;-65
2024/01/25 01:00:07;;;;;;;17.10;6.30;;;;;;;;;;5091450;28;20490;-65
2024/01/25 01:02:36;;;;;;;19.83;7.43;;;;;;;;;;5091000;28;20448;-65
2024/01/25 01:05:03;;;;;;;22.53;6.60;;;;;;;;;;5094268;28;20459;-65
2024/01/25 01:07:29;;;;;;;24.77;8.30;;;;;;;;;;5092014;28;20478;-65
2024/01/25 01:09:56;;;;;;;25.33;7.93;;;;;;;;;;5085967;28;20475;-65
2024/01/25 01:12:23;;;;;;;23.80;7.43;;;;;;;;;;5088415;28;20452;-65
2024/01/25 01:14:50;;;;;;;22.80;6.47;;;;;;;;;;5099057;28;20482;-65
2024/01/25 01:17:18;;;;;;;29.87;8.27;;;;;;;;;;5099681;28;20451;-66
2024/01/25 01:19:44;;;;;;;26.70;8.90;;;;;;;;;;5096086;28;20491;-66
2024/01/25 01:22:10;;;;;;;14.80;7.20;;;;;;;;;;5102605;28;20455;-65
2024/01/25 01:24:37;;;;;;;26.47;9.53;;;;;;;;;;5093043;28;20462;-65
2024/01/25 01:27:04;;;;;;;24.63;7.80;;;;;;;;;;5090787;28;20453;-65
2024/01/25 01:29:31;;;;;;;20.30;6.37;;;;;;;;;;5089717;28;20451;-66
2024/01/25 01:31:58;;;;;;;30.43;7.80;;;;;;;;;;5094742;28;21030;-66
2024/01/25 01:34:25;;;;;;;22.30;7.47;;;;;;;;;;5091836;28;20479;-65
2024/01/25 01:36:51;;;;;;;29.07;7.93;;;;;;;;;;5095101;28;20483;-65
2024/01/25 01:39:17;;;;;;;24.67;7.60;;;;;;;;;;5088007;28;20482;-65
2024/01/25 01:41:47;;;;;;;18.17;6.83;;;;;;;;;;5089449;28;20475;-66
2024/01/25 01:44:13;;;;;;;26.40;7.30;;;;;;;;;;5094209;28;20513;-66
2024/01/25 01:46:42;;;;;;;31.90;8.93;;;;;;;;;;5095623;28;20998;-66
2024/01/25 01:49:11;;;;;;;22.60;8.03;;;;;;;;;;5090970;28;20520;-66
2024/01/25 01:51:38;;;;;;;26.93;7.53;;;;;;;;;;5091364;28;20454;-66
2024/01/25 01:54:07;;;;;;;18.77;7.50;;;;;;;;;;5085877;28;20480;-66
2024/01/25 01:56:34;;;;;;;24.73;8.33;;;;;;;;;;5092632;28;20458;-65
2024/01/25 01:59:00;;;;;;;26.23;8.07;;;;;;;;;;5093207;28;20534;-66
2024/01/25 02:01:27;;;;;;;20.80;8.00;;;;;;;;;;5091940;28;20455;-66
2024/01/25 02:03:55;;;;;;;31.27;7.17;;;;;;;;;;5099291;28;20443;-66
2024/01/25 02:06:22;;;;;;;22.70;7.60;;;;;;;;;;5096009;28;20519;-66
2024/01/25 02:08:49;;;;;;;18.10;6.40;;;;;;;;;;5093205;28;20515;-66
2024/01/25 02:11:15;;;;;;;23.37;6.80;;;;;;;;;;5087870;28;20460;-66
2024/01/25 02:13:42;;;;;;;23.00;7.30;;;;;;;;;;5090627;28;20462;-66
2024/01/25 02:16:08;;;;;;;20.73;7.20;;;;;;;;;;5093043;28;20524;-66
2024/01/25 02:18:35;;;;;;;22.07;8.30;;;;;;;;;;5092408;28;20487;-66
2024/01/25 02:21:03;;;;;;;17.47;7.03;;;;;;;;;;5094450;28;20490;-66
2024/01/25 02:23:30;;;;;;;15.27;7.60;;;;;;;;;;5091747;28;20459;-65
2024/01/25 02:25:57;;;;;;;19.40;6.83;;;;;;;;;;5094890;28;20499;-65
2024/01/25 02:28:23;;;;;;;24.93;7.57;;;;;;;;;;5094447;28;20508;-65
2024/01/25 02:30:50;;;;;;;18.40;6.27;;;;;;;;;;5088146;28;20443;-65
2024/01/25 02:33:16;;;;;;;29.67;7.67;;;;;;;;;;5094460;28;20493;-65
2024/01/25 02:35:43;;;;;;;24.43;7.60;;;;;;;;;;5087910;28;20463;-65
2024/01/25 02:38:09;;;;;;;23.53;6.10;;;;;;;;;;5089941;28;20452;-65
2024/01/25 02:40:37;;;;;;;17.13;7.33;;;;;;;;;;5084533;28;20503;-65
2024/01/25 02:43:03;;;;;;;26.97;8.20;;;;;;;;;;5084524;28;20479;-66
2024/01/25 02:45:30;;;;;;;22.23;6.63;;;;;;;;;;5088074;28;20479;-65
2024/01/25 02:47:56;;;;;;;21.90;7.57;;;;;;;;;;5098974;28;20473;-65
2024/01/25 02:50:22;;;;;;;25.13;7.67;;;;;;;;;;5100959;28;20446;-66
2024/01/25 02:52:49;;;;;;;21.20;6.90;;;;;;;;;;5092752;28;20479;-66
2024/01/25 02:55:19;;;;;;;22.23;7.73;;;;;;;;;;5093886;28;20482;-66
2024/01/25 02:57:46;;;;;;;22.77;8.13;;;;;;;;;;5091926;28;20486;-65
2024/01/25 03:00:13;;;;;;;22.63;7.00;;;;;;;;;;5092227;28;20479;-65
2024/01/25 03:02:39;;;;;;;24.10;6.77;;;;;;;;;;5096896;28;20551;-65
2024/01/25 03:05:06;;;;;;;27.90;7.97;;;;;;;;;;5095757;28;20511;-65
2024/01/25 03:07:32;;;;;;;20.70;6.53;;;;;;;;;;5100008;28;20455;-66
2024/01/25 03:09:59;;;;;;;20.40;7.23;;;;;;;;;;5099927;28;20494;-66
2024/01/25 03:12:25;;;;;;;15.43;6.20;;;;;;;;;;5097528;28;20514;-66
2024/01/25 03:14:53;;;;;;;19.37;7.70;;;;;;;;;;5096870;28;20522;-66
2024/01/25 03:17:19;;;;;;;26.00;7.47;;;;;;;;;;5099428;28;20474;-66
2024/01/25 03:19:47;;;;;;;27.10;7.50;;;;;;;;;;5099702;28;20443;-66
2024/01/25 03:22:13;;;;;;;20.90;6.73;;;;;;;;;;5098241;28;20526;-65
2024/01/25 03:24:40;;;;;;;17.03;6.33;;;;;;;;;;5095368;28;20494;-66
2024/01/25 03:27:12;;;;;;;23.63;6.40;;;;;;;;;;5088281;28;20474;-66
2024/01/25 03:29:39;;;;;;;23.40;7.07;;;;;;;;;;5096431;28;20491;-65
2024/01/25 03:32:07;;;;;;;15.27;6.40;;;;;;;;;;5090574;28;20483;-65
2024/01/25 03:34:33;;;;;;;23.10;7.50;;;;;;;;;;5086780;28;20463;-65
2024/01/25 03:37:00;;;;;;;22.63;7.37;;;;;;;;;;5094684;28;20468;-66
2024/01/25 03:39:26;;;;;;;24.40;7.27;;;;;;;;;;5097243;28;20554;-66
2024/01/25 03:41:52;;;;;;;23.50;7.50;;;;;;;;;;5096233;28;20499;-65
2024/01/25 03:44:20;;;;;;;22.43;7.47;;;;;;;;;;5095891;28;20540;-66
2024/01/25 03:46:47;;;;;;;16.90;6.27;;;;;;;;;;5101522;28;20500;-65
2024/01/25 03:49:14;;;;;;;21.80;7.83;;;;;;;;;;5098199;28;20511;-66
2024/01/25 03:51:41;;;;;;;25.30;8.30;;;;;;;;;;5097479;28;20474;-65
2024/01/25 03:54:07;;;;;;;18.73;7.40;;;;;;;;;;5094036;28;20459;-65
2024/01/25 03:56:34;;;;;;;25.97;8.90;;;;;;;;;;5093832;28;20533;-65
2024/01/25 03:59:00;;;;;;;19.07;6.10;;;;;;;;;;5092189;28;20469;-65
2024/01/25 04:01:26;;;;;;;18.97;6.40;;;;;;;;;;5097126;28;20472;-66
2024/01/25 04:03:53;;;;;;;21.70;7.07;;;;;;;;;;5096226;28;20506;-65
2024/01/25 04:06:21;;;;;;;19.07;6.87;;;;;;;;;;5096642;28;20870;-65
2024/01/25 04:08:47;;;;;;;23.43;6.87;;;;;;;;;;5096152;28;20499;-65
2024/01/25 04:11:15;;;;;;;20.10;6.97;;;;;;;;;;5097895;28;20526;-65
2024/01/25 04:13:43;;;;;;;24.23;7.53;;;;;;;;;;5092428;28;20547;-65
2024/01/25 04:16:09;;;;;;;23.63;7.30;;;;;;;;;;5089974;28;20847;-66
2024/01/25 04:18:36;;;;;;;20.90;6.33;;;;;;;;;;5102337;28;20541;-66
2024/01/25 04:21:02;;;;;;;23.97;6.90;;;;;;;;;;5094144;28;20452;-66
2024/01/25 04:23:30;;;;;;;24.93;6.80;;;;;;;;;;5082191;28;21001;-66
2024/01/25 04:25:56;;;;;;;19.33;6.77;;;;;;;;;;5088801;28;20490;-66
2024/01/25 04:28:23;;;;;;;17.87;6.80;;;;;;;;;;5085161;28;20511;-66
2024/01/25 04:30:49;;;;;;;24.13;6.17;;;;;;;;;;5089744;28;20485;-66
2024/01/25 04:33:15;;;;;;;18.93;7.40;;;;;;;;;;5090372;28;20499;-66
2024/01/25 04:35:42;;;;;;;12.90;6.13;;;;;;;;;;5096331;28;20483;-66
2024/01/25 04:38:08;;;;;;;18.17;6.30;;;;;;;;;;5094522;28;20474;-66
2024/01/25 04:40:36;;;;;;;21.03;6.27;;;;;;;;;;5094830;28;20506;-66
2024/01/25 04:43:02;;;;;;;17.77;6.07;;;;;;;;;;5093317;28;21072;-66
2024/01/25 04:45:29;;;;;;;18.07;6.37;;;;;;;;;;5091802;28;20468;-65
2024/01/25 04:47:55;;;;;;;30.03;7.80;;;;;;;;;;5091521;28;20467;-65
2024/01/25 04:50:22;;;;;;;21.13;7.53;;;;;;;;;;5090159;28;20510;-66
2024/01/25 04:52:48;;;;;;;20.13;6.73;;;;;;;;;;5089389;28;20486;-66
2024/01/25 04:55:14;;;;;;;17.77;7.43;;;;;;;;;;5089074;28;20452;-66
2024/01/25 04:57:43;;;;;;;19.10;7.77;;;;;;;;;;5097825;28;20443;-66
2024/01/25 05:00:10;;;;;;;18.10;7.30;;;;;;;;;;5089727;28;20553;-66
2024/01/25 05:02:36;;;;;;;20.40;6.87;;;;;;;;;;5095982;28;20443;-66
2024/01/25 05:05:03;;;;;;;16.37;6.00;;;;;;;;;;5096075;28;20470;-66
2024/01/25 05:07:30;;;;;;;26.17;7.63;;;;;;;;;;5096202;28;20453;-65
2024/01/25 05:09:56;;;;;;;18.70;6.03;;;;;;;;;;5089720;28;20536;-65
2024/01/25 05:12:22;;;;;;;19.13;7.37;;;;;;;;;;5096150;28;20975;-66
2024/01/25 05:14:50;;;;;;;17.40;6.77;;;;;;;;;;5093656;28;20476;-65
2024/01/25 05:17:17;;;;;;;20.33;7.97;;;;;;;;;;5096749;28;20459;-65
2024/01/25 05:19:43;;;;;;;22.33;7.10;;;;;;;;;;5083940;28;20544;-66
2024/01/25 05:22:09;;;;;;;22.93;7.20;;;;;;;;;;5091121;28;20468;-65
2024/01/25 05:24:36;;;;;;;22.00;6.40;;;;;;;;;;5100153;28;20478;-65
2024/01/25 05:27:03;;;;;;;16.47;7.03;;;;;;;;;;5092951;28;20464;-66
2024/01/25 05:29:29;;;;;;;22.53;7.50;;;;;;;;;;5094529;28;20481;-65
2024/01/25 05:31:57;;;;;;;20.30;7.97;;;;;;;;;;5090967;28;20724;-65
2024/01/25 05:34:24;;;;;;;27.47;6.90;;;;;;;;;;5090548;28;20514;-65
2024/01/25 05:36:50;;;;;;;22.87;6.10;;;;;;;;;;5090182;28;20521;-65
2024/01/25 05:39:16;;;;;;;14.33;6.37;;;;;;;;;;5091523;28;20451;-66
2024/01/25 05:41:44;;;;;;;24.77;6.87;;;;;;;;;;5096715;28;20798;-66
2024/01/25 05:44:11;;;;;;;18.57;5.83;;;;;;;;;;5097598;28;20485;-66
2024/01/25 05:46:37;;;;;;;16.70;5.00;;;;;;;;;;5097965;28;20478;-65
2024/01/25 05:49:05;;;;;;;25.97;6.47;;;;;;;;;;5093154;28;20515;-65
2024/01/25 05:51:31;;;;;;;20.63;5.80;;;;;;;;;;5097818;28;20522;-66
2024/01/25 05:53:58;;;;;;;25.03;7.20;;;;;;;;;;5097639;28;20495;-66
2024/01/25 05:56:25;;;;;;;31.00;6.30;;;;;;;;;;5090235;28;20490;-66
2024/01/25 05:58:51;;;;;;;25.33;6.37;;;;;;;;;;5089045;28;20448;-65
2024/01/25 06:01:18;;;;;;;21.40;5.93;;;;;;;;;;5089818;28;20556;-66
2024/01/25 06:03:45;;;;;;;23.27;6.57;;;;;;;;;;5091907;28;20505;-66
2024/01/25 06:06:13;;;;;;;22.73;6.57;;;;;;;;;;5095461;28;20443;-66
2024/01/25 06:08:39;;;;;;;19.33;6.57;;;;;;;;;;5095268;28;20443;-66
2024/01/25 06:11:06;;;;;;;25.03;7.23;;;;;;;;;;5096467;28;20466;-66
2024/01/25 06:13:32;;;;;;;27.63;7.20;;;;;;;;;;5097227;28;20463;-65
2024/01/25 06:15:59;;;;;;;18.93;6.03;;;;;;;;;;5092730;28;20451;-66
2024/01/25 06:18:26;;;;;;;23.73;6.67;;;;;;;;;;5096750;28;20443;-65
2024/01/25 06:20:52;;;;;;;19.10;5.93;;;;;;;;;;5090964;28;20525;-65
2024/01/25 06:23:20;;;;;;;20.53;6.20;;;;;;;;;;5097168;28;20451;-65
2024/01/25 06:25:46;;;;;;;26.67;5.90;;;;;;;;;;5098127;28;20482;-67
2024/01/25 06:28:13;;;;;;;23.00;5.60;;;;;;;;;;5093329;28;20494;-66
2024/01/25 06:30:39;;;;;;;23.13;5.87;;;;;;;;;;5103357;28;20480;-66
2024/01/25 06:33:06;;;;;;;19.67;6.77;;;;;;;;;;5096746;28;20523;-65
2024/01/25 06:35:32;;;;;;;20.70;6.40;;;;;;;;;;5092657;28;20451;-65
2024/01/25 06:37:59;;;;;;;21.17;7.00;;;;;;;;;;5100507;28;20449;-66
2024/01/25 06:40:26;;;;;;;22.07;7.20;;;;;;;;;;5100238;28;21023;-65
2024/01/25 06:42:53;;;;;;;27.40;6.70;;;;;;;;;;5097445;28;20471;-66
2024/01/25 06:45:19;;;;;;;24.87;7.00;;;;;;;;;;5095072;28;20493;-66
2024/01/25 06:47:46;;;;;;;18.67;6.30;;;;;;;;;;5097097;28;20513;-65
2024/01/25 06:50:13;;;;;;;24.10;6.30;;;;;;;;;;5096863;28;20526;-66
2024/01/25 06:52:39;;;;;;;29.03;7.40;;;;;;;;;;5100441;28;20920;-65
2024/01/25 06:55:06;;;;;;;33.80;6.00;;;;;;;;;;5093494;28;20479;-66
2024/01/25 06:57:34;;;;;;;37.57;7.83;;;;;;;;;;5098748;28;20446;-65
2024/01/25 07:00:00;;;;;;;27.03;6.30;;;;;;;;;;5095621;28;20482;-65
2024/01/25 07:02:26;;;;;;;22.17;6.33;;;;;;;;;;5100436;28;20485;-66
2024/01/25 07:04:54;;;;;;;27.60;6.73;;;;;;;;;;5098891;28;20462;-65
2024/01/25 07:07:21;;;;;;;21.43;6.50;;;;;;;;;;5099109;28;20598;-66
2024/01/25 07:09:47;;;;;;;22.57;6.13;;;;;;;;;;5108643;28;20524;-66
2024/01/25 07:12:14;;;;;;;15.80;5.30;;;;;;;;;;5090026;28;20501;-66
2024/01/25 07:14:41;;;;;;;23.13;6.30;;;;;;;;;;5096859;28;20501;-66
2024/01/25 07:17:08;;;;;;;22.53;6.53;;;;;;;;;;5099552;28;20447;-65
2024/01/25 07:19:34;;;;;;;15.50;5.50;;;;;;;;;;5097709;28;20902;-66
2024/01/25 07:22:01;;;;;;;23.83;5.43;;;;;;;;;;5098349;28;20498;-66
2024/01/25 07:24:27;;;;;;;14.77;4.77;;;;;;;;;;5100255;28;20449;-64
2024/01/25 07:26:54;;;;;;;17.70;5.90;;;;;;;;;;5095066;28;20465;-63
2024/01/25 07:29:20;;;;;;;17.80;5.77;;;;;;;;;;5097231;28;20474;-65
2024/01/25 07:31:48;;;;;;;24.63;6.40;;;;;;;;;;5092869;28;20481;-65
2024/01/25 07:34:14;;;;;;;25.47;5.77;;;;;;;;;;5099961;28;20535;-66
2024/01/25 07:36:41;;;;;;;23.53;6.43;;;;;;;;;;5100423;28;20471;-65
2024/01/25 07:39:08;;;;;;;31.87;6.50;;;;;;;;;;5100509;28;20924;-69
2024/01/25 07:41:34;;;;;;;25.70;6.80;;;;;;;;;;5103418;28;20465;-67
2024/01/25 07:44:01;;;;;;;31.07;6.70;;;;;;;;;;5103425;28;20494;-66
2024/01/25 07:46:27;;;;;;;29.17;6.77;;;;;;;;;;5109468;28;20454;-65
2024/01/25 07:48:55;;;;;;;26.67;6.50;;;;;;;;;;5092800;28;20486;-65
2024/01/25 07:51:21;;;;;;;22.60;6.60;;;;;;;;;;5092414;28;20492;-65
2024/01/25 07:53:48;;;;;;;33.53;8.50;;;;;;;;;;5094416;28;20473;-65
2024/01/25 07:56:14;;;;;;;21.80;7.07;;;;;;;;;;5092946;28;20883;-65
2024/01/25 07:58:41;;;;;;;18.13;5.90;;;;;;;;;;5099190;28;20992;-65
2024/01/25 08:01:07;;;;;;;19.23;6.53;;;;;;;;;;5100481;28;20450;-65
2024/01/25 08:03:34;;;;;;;22.87;6.40;;;;;;;;;;5098690;28;20451;-65
2024/01/25 08:06:03;;;;;;;29.70;6.60;;;;;;;;;;5095602;28;20463;-65
2024/01/25 08:08:29;;;;;;;22.37;7.10;;;;;;;;;;5095877;28;20467;-66
2024/01/25 08:10:55;;;;;;;27.80;8.10;;;;;;;;;;5091445;28;20509;-66
2024/01/25 08:13:22;;;;;;;32.40;7.83;;;;;;;;;;5095563;28;20446;-67
2024/01/25 08:15:49;;;;;;;21.27;7.10;;;;;;;;;;5095408;28;20460;-65
2024/01/25 08:18:16;;;;;;;18.63;7.00;;;;;;;;;;5098769;28;20439;-68
2024/01/25 08:20:42;;;;;;;21.43;6.33;;;;;;;;;;5099138;28;20451;-68
2024/01/25 08:23:10;;;;;;;21.67;7.70;;;;;;;;;;5099684;28;20778;-65
2024/01/25 08:25:37;;;;;;;23.20;8.40;;;;;;;;;;5097124;28;20966;-66
2024/01/25 08:28:03;;;;;;;23.87;7.03;;;;;;;;;;5095496;28;20462;-65
2024/01/25 08:30:30;;;;;;;23.27;7.53;;;;;;;;;;5095536;28;20512;-65
2024/01/25 08:32:56;;;;;;;40.77;10.60;;;;;;;;;;5097940;28;20469;-65
2024/01/25 08:35:23;;;;;;;15.23;7.90;;;;;;;;;;5091029;28;20503;-64
2024/01/25 08:37:50;;;;;;;22.40;7.77;;;;;;;;;;5089429;28;20462;-68
2024/01/25 08:40:18;;;;;;;18.17;8.17;;;;;;;;;;5097882;28;20517;-65
2024/01/25 08:42:44;;;;;;;25.90;7.93;;;;;;;;;;5092037;28;20509;-67
2024/01/25 08:45:11;;;;;;;26.53;8.77;;;;;;;;;;5098117;28;20469;-63
2024/01/25 08:47:37;;;;;;;18.40;8.57;;;;;;;;;;5098221;28;20968;-63
2024/01/25 08:50:05;;;;;;;22.53;8.97;;;;;;;;;;5096482;28;20656;-66
2024/01/25 08:52:32;;;;;;;22.83;8.40;;;;;;;;;;5093377;28;20475;-66
2024/01/25 08:54:58;;;;;;;23.23;8.20;;;;;;;;;;5090571;28;20455;-66
2024/01/25 08:57:26;;;;;;;20.93;7.97;;;;;;;;;;5098086;28;21041;-66
2024/01/25 08:59:54;;;;;;;21.17;8.50;;;;;;;;;;5098332;28;20473;-67
2024/01/25 09:02:26;;;;;;;23.63;8.43;;;;;;;;;;5095579;28;20519;-66
2024/01/25 09:04:53;;;;;;;22.80;9.40;;;;;;;;;;5099157;28;20459;-63
2024/01/25 09:07:19;;;;;;;21.30;9.83;;;;;;;;;;5096782;28;20454;-66
2024/01/25 09:09:46;;;;;;;23.50;9.70;;;;;;;;;;5102163;28;20483;-68
2024/01/25 09:12:13;;;;;;;28.23;9.10;;;;;;;;;;5097484;28;20451;-71
2024/01/25 09:14:41;;;;;;;22.57;9.87;;;;;;;;;;5098119;28;20475;-66
2024/01/25 09:17:08;;;;;;;24.57;8.60;;;;;;;;;;5092748;28;20458;-66
2024/01/25 09:19:35;;;;;;;23.30;9.00;;;;;;;;;;5096391;28;20459;-66
2024/01/25 09:22:04;;;;;;;25.20;8.80;;;;;;;;;;5091575;28;21161;-66
2024/01/25 09:24:30;;;;;;;23.53;9.93;;;;;;;;;;5100956;28;20458;-63
2024/01/25 09:26:58;;;;;;;33.77;10.13;;;;;;;;;;5096033;28;20463;-65
2024/01/25 09:29:25;;;;;;;24.53;9.97;;;;;;;;;;5096412;28;20473;-64
2024/01/25 09:31:53;;;;;;;28.73;11.73;;;;;;;;;;5093564;28;20491;-64
2024/01/25 09:34:19;;;;;;;26.43;8.80;;;;;;;;;;5097052;28;20454;-65
2024/01/25 09:36:46;;;;;;;19.67;7.77;;;;;;;;;;5097111;28;20803;-64
2024/01/25 09:39:12;;;;;;;24.40;8.43;;;;;;;;;;5096990;28;20454;-65
2024/01/25 09:41:39;;;;;;;18.30;7.27;;;;;;;;;;5093602;28;20524;-65
2024/01/25 09:44:05;;;;;;;19.37;7.83;;;;;;;;;;5098156;28;20478;-65
2024/01/25 09:46:32;;;;;;;34.97;9.40;;;;;;;;;;5094301;28;20447;-66
2024/01/25 09:49:00;;;;;;;22.23;9.43;;;;;;;;;;5095265;28;20516;-66
2024/01/25 09:51:27;;;;;;;28.10;10.87;;;;;;;;;;5092473;28;20471;-64
2024/01/25 09:53:55;;;;;;;18.17;8.07;;;;;;;;;;5098725;28;20461;-64
2024/01/25 09:56:23;;;;;;;28.10;8.27;;;;;;;;;;5097393;28;20519;-64
2024/01/25 09:58:49;;;;;;;27.40;8.97;;;;;;;;;;5100903;28;20452;-63
2024/01/25 10:01:16;;;;;;;18.57;7.80;;;;;;;;;;5089858;28;20488;-64
2024/01/25 10:03:43;;;;;;;23.53;7.57;;;;;;;;;;5088656;28;20445;-64
2024/01/25 10:06:11;;;;;;;25.77;8.27;;;;;;;;;;5097980;28;20486;-63
2024/01/25 10:08:37;;;;;;;22.53;8.13;;;;;;;;;;5095868;28;20487;-64
2024/01/25 10:11:04;;;;;;;18.50;7.50;;;;;;;;;;5085042;28;20490;-62
2024/01/25 10:13:31;;;;;;;25.50;7.67;;;;;;;;;;5102851;28;20443;-66
2024/01/25 10:15:57;;;;;;;30.60;10.53;;;;;;;;;;5100761;28;20451;-64
2024/01/25 10:18:25;;;;;;;27.13;11.00;;;;;;;;;;5101983;28;20451;-66
2024/01/25 10:20:52;;;;;;;24.53;8.70;;;;;;;;;;5099672;28;20448;-65
2024/01/25 10:23:20;;;;;;;18.23;6.90;;;;;;;;;;5100871;28;20473;-65
2024/01/25 10:25:47;;;;;;;27.47;8.53;;;;;;;;;;5100036;28;20525;-65
2024/01/25 10:28:13;;;;;;;26.33;10.77;;;;;;;;;;5100077;28;20447;-64
2024/01/25 10:30:40;;;;;;;23.67;8.40;;;;;;;;;;5103726;28;20518;-63
2024/01/25 10:33:07;;;;;;;27.60;9.93;;;;;;;;;;5092298;28;20474;-66
2024/01/25 10:35:33;;;;;;;22.87;8.80;;;;;;;;;;5097752;28;20926;-67
2024/01/25 10:38:00;;;;;;;23.90;7.60;;;;;;;;;;5100791;28;21092;-66
2024/01/25 10:40:29;;;;;;;25.13;12.23;;;;;;;;;;5084499;28;20510;-66
2024/01/25 10:42:55;;;;;;;31.57;8.30;;;;;;;;;;5096236;28;20514;-67
2024/01/25 10:45:22;;;;;;;22.17;8.53;;;;;;;;;;5094950;28;20459;-67
2024/01/25 10:47:49;;;;;;;28.27;8.47;;;;;;;;;;5102231;28;20476;-64
2024/01/25 10:50:16;;;;;;;26.00;9.57;;;;;;;;;;5098266;28;21105;-64
2024/01/25 10:52:42;;;;;;;30.27;8.33;;;;;;;;;;5095973;28;21005;-64
2024/01/25 10:55:10;;;;;;;19.40;8.97;;;;;;;;;;5093869;28;20462;-64
2024/01/25 10:57:38;;;;;;;17.80;8.27;;;;;;;;;;5096407;28;20951;-64
2024/01/25 11:00:07;;;;;;;25.63;10.10;;;;;;;;;;5098333;28;20446;-66
2024/01/25 11:02:35;;;;;;;19.63;7.93;;;;;;;;;;5093259;28;20465;-66
2024/01/25 11:05:03;;;;;;;30.30;11.60;;;;;;;;;;5098292;28;20455;-66
2024/01/25 11:07:29;;;;;;;26.00;9.00;;;;;;;;;;5103440;28;21014;-66
2024/01/25 11:09:56;;;;;;;27.03;9.27;;;;;;;;;;5100298;28;20488;-66
2024/01/25 11:12:22;;;;;;;19.47;8.03;;;;;;;;;;5093679;28;20508;-66
2024/01/25 11:14:56;;;;;;;23.50;9.60;;;;;;;;;;5094399;28;20462;-66
2024/01/25 11:17:23;;;;;;;27.07;8.90;;;;;;;;;;5092999;28;20907;-66
2024/01/25 11:19:50;;;;;;;28.30;7.83;;;;;;;;;;5099256;28;20516;-66
2024/01/25 11:22:17;;;;;;;20.33;8.00;;;;;;;;;;5096399;28;20511;-66
2024/01/25 11:24:45;;;;;;;19.03;8.67;;;;;;;;;;5098409;28;20955;-66
2024/01/25 11:27:12;;;;;;;23.67;8.97;;;;;;;;;;5098272;28;20459;-66
2024/01/25 11:29:39;;;;;;;24.93;8.00;;;;;;;;;;5097046;28;20439;-67
2024/01/25 11:32:07;;;;;;;20.83;8.17;;;;;;;;;;5092569;28;20917;-66
2024/01/25 11:34:33;;;;;;;26.43;7.90;;;;;;;;;;5095267;28;20818;-66
2024/01/25 11:37:00;;;;;;;23.37;7.20;;;;;;;;;;5096838;28;20679;-66
2024/01/25 11:39:26;;;;;;;30.87;9.00;;;;;;;;;;5097187;28;20490;-66
2024/01/25 11:41:53;;;;;;;24.20;8.53;;;;;;;;;;5097352;28;20477;-66
2024/01/25 11:44:22;;;;;;;23.17;9.07;;;;;;;;;;5095851;28;20439;-67
2024/01/25 11:46:49;;;;;;;27.43;8.87;;;;;;;;;;5096649;28;20518;-66
2024/01/25 11:49:16;;;;;;;23.97;8.13;;;;;;;;;;5102362;28;20455;-66
2024/01/25 11:51:43;;;;;;;33.80;8.67;;;;;;;;;;5104019;28;20477;-66
2024/01/25 11:54:10;;;;;;;27.87;8.63;;;;;;;;;;5098354;28;20466;-66
2024/01/25 11:56:39;;;;;;;31.07;8.33;;;;;;;;;;5107921;28;20442;-66
2024/01/25 11:59:05;;;;;;;21.93;8.57;;;;;;;;;;5096686;28;20443;-66
2024/01/25 12:01:32;;;;;;;23.60;8.33;;;;;;;;;;5101613;28;20956;-66
2024/01/25 12:03:58;;;;;;;25.70;9.57;;;;;;;;;;5100948;28;20473;-66
2024/01/25 12:06:26;;;;;;;22.33;9.33;;;;;;;;;;5094222;28;20456;-66
2024/01/25 12:08:53;;;;;;;28.63;8.57;;;;;;;;;;5096940;28;20487;-66
2024/01/25 12:11:19;;;;;;;22.20;10.10;;;;;;;;;;5093862;28;20522;-65
2024/01/25 12:13:46;;;;;;;19.23;8.40;;;;;;;;;;5093623;28;20458;-67
2024/01/25 12:16:13;;;;;;;20.53;8.40;;;;;;;;;;5100701;28;20552;-67
2024/01/25 12:18:41;;;;;;;20.33;10.43;;;;;;;;;;5099772;28;20496;-67
2024/01/25 12:21:08;;;;;;;20.30;9.90;;;;;;;;;;5094487;28;20448;-66
2024/01/25 12:23:36;;;;;;;19.30;9.77;;;;;;;;;;5097966;28;21020;-68
2024/01/25 12:26:04;;;;;;;31.87;10.87;;;;;;;;;;5101019;28;20451;-66
2024/01/25 12:28:32;;;;;;;24.77;8.43;;;;;;;;;;5098635;28;20537;-66
2024/01/25 12:30:59;;;;;;;22.43;10.50;;;;;;;;;;5091602;28;20479;-67
2024/01/25 12:33:25;;;;;;;21.67;10.30;;;;;;;;;;5099184;28;20458;-65
2024/01/25 12:35:51;;;;;;;25.53;8.80;;;;;;;;;;5094455;28;20540;-66
2024/01/25 12:38:18;;;;;;;14.77;7.43;;;;;;;;;;5097868;28;20991;-66
2024/01/25 12:40:47;;;;;;;21.80;9.37;;;;;;;;;;5097736;28;20487;-67
2024/01/25 12:43:13;;;;;;;17.60;8.43;;;;;;;;;;5099010;28;20506;-67
2024/01/25 12:45:40;;;;;;;23.10;8.70;;;;;;;;;;5095294;28;20458;-65
2024/01/25 12:48:08;;;;;;;24.63;10.47;;;;;;;;;;5099137;28;20461;-65
2024/01/25 12:50:35;;;;;;;25.37;10.30;;;;;;;;;;5100369;28;20450;-64
2024/01/25 12:53:01;;;;;;;22.00;8.80;;;;;;;;;;5098078;28;20587;-65
2024/01/25 12:55:28;;;;;;;25.30;9.43;;;;;;;;;;5101159;28;20451;-64
2024/01/25 12:57:56;;;;;;;16.20;8.47;;;;;;;;;;5090773;28;20439;-65
2024/01/25 13:00:22;;;;;;;21.97;9.10;;;;;;;;;;5089413;28;20497;-67
2024/01/25 13:02:49;;;;;;;18.07;8.20;;;;;;;;;;5095048;28;20475;-67
2024/01/25 13:05:16;;;;;;;20.13;8.30;;;;;;;;;;5095850;28;20462;-65
2024/01/25 13:07:42;;;;;;;27.20;9.33;;;;;;;;;;5086739;28;20445;-67
2024/01/25 13:10:11;;;;;;;21.93;9.40;;;;;;;;;;5095034;28;20518;-66
2024/01/25 13:12:37;;;;;;;21.67;8.83;;;;;;;;;;5101782;28;21031;-67
2024/01/25 13:15:05;;;;;;;32.20;9.77;;;;;;;;;;5092867;28;20527;-67
2024/01/25 13:17:32;;;;;;;27.57;10.43;;;;;;;;;;5091002;28;20462;-66
2024/01/25 13:19:58;;;;;;;25.00;11.40;;;;;;;;;;5095787;28;20455;-67
2024/01/25 13:22:25;;;;;;;30.17;10.67;;;;;;;;;;5098083;28;20447;-66
2024/01/25 13:24:51;;;;;;;27.77;11.23;;;;;;;;;;5097597;28;20463;-65
2024/01/25 13:27:18;;;;;;;22.30;9.87;;;;;;;;;;5091923;28;20455;-68
2024/01/25 13:29:44;;;;;;;25.77;9.43;;;;;;;;;;5096472;28;20440;-66
2024/01/25 13:32:12;;;;;;;20.80;10.10;;;;;;;;;;5104849;28;20537;-66
2024/01/25 13:34:38;;;;;;;26.07;10.53;;;;;;;;;;5088234;28;20479;-66
2024/01/25 13:37:05;;;;;;;23.20;9.03;;;;;;;;;;5097228;28;20475;-65
2024/01/25 13:39:32;;;;;;;25.97;9.67;;;;;;;;;;5097308;28;20532;-66
2024/01/25 13:41:58;;;;;;;24.27;9.33;;;;;;;;;;5091704;28;20493;-66
2024/01/25 13:44:24;;;;;;;24.70;9.90;;;;;;;;;;5093069;28;20444;-66
2024/01/25 13:46:51;;;;;;;27.37;11.10;;;;;;;;;;5095018;28;20462;-66
2024/01/25 13:49:19;;;;;;;33.77;11.80;;;;;;;;;;5095160;28;20528;-66
2024/01/25 13:51:46;;;;;;;31.47;10.03;;;;;;;;;;5104809;28;20874;-67
2024/01/25 13:54:12;;;;;;;18.83;8.80;;;;;;;;;;5096010;28;20439;-66
2024/01/25 13:56:39;;;;;;;35.90;10.50;;;;;;;;;;5093354;28;20455;-66
2024/01/25 13:59:06;;;;;;;26.00;9.43;;;;;;;;;;5095821;28;20466;-66
2024/01/25 14:01:32;;;;;;;28.57;9.33;;;;;;;;;;5093923;28;20448;-65
2024/01/25 14:03:59;;;;;;;21.30;9.00;;;;;;;;;;5099994;28;20438;-67
2024/01/25 14:06:27;;;;;;;28.03;10.00;;;;;;;;;;5098033;28;20458;-66
2024/01/25 14:08:53;;;;;;;23.63;9.60;;;;;;;;;;5097985;28;20439;-69
2024/01/25 14:11:20;;;;;;;30.10;10.13;;;;;;;;;;5097916;28;20835;-65
2024/01/25 14:13:46;;;;;;;25.50;10.93;;;;;;;;;;5097169;28;20447;-67
2024/01/25 14:16:16;;;;;;;29.13;11.77;;;;;;;;;;5096258;28;20458;-65
2024/01/25 14:18:43;;;;;;;27.63;11.40;;;;;;;;;;5097773;28;20535;-67
2024/01/25 14:21:09;;;;;;;32.57;11.33;;;;;;;;;;5093362;28;20518;-65
2024/01/25 14:23:37;;;;;;;26.03;11.50;;;;;;;;;;5097118;28;20503;-66
2024/01/25 14:26:04;;;;;;;33.03;14.43;;;;;;;;;;5099690;28;20468;-64